sensor_id;sensor_type;location;lat;lon;timestamp;P1;durP1;ratioP1;P2;durP2;ratioP2
43008;SDS011;28634;45.454;11.106;2022-09-12T00:00:51;2.58;;;1.65;;
43008;SDS011;28634;45.454;11.106;2022-09-12T00:03:18;4.28;;;2.00;;
43008;SDS011;28634;45.454;11.106;2022-09-12T00:05:45;4.80;;;1.60;;
43008;SDS011;28634;45.454;11.106;2022-09-12T00:08:13;2.63;;;1.83;;
43008;SDS011;28634;45.454;11.106;2022-09-12T00:10:41;4.95;;;1.80;;
43008;SDS011;28634;45.454;11.106;2022-09-12T00:13:10;2.13;;;1.58;;
43008;SDS011;28634;45.454;11.106;2022-09-12T00:15:40;4.88;;;1.80;;
43008;SDS011;28634;45.454;11.106;2022-09-12T00:18:11;4.68;;;1.90;;
43008;SDS011;28634;45.454;11.106;2022-09-12T00:20:41;5.38;;;1.70;;
43008;SDS011;28634;45.454;11.106;2022-09-12T00:23:12;3.40;;;1.67;;
43008;SDS011;28634;45.454;11.106;2022-09-12T00:25:43;3.83;;;2.10;;
43008;SDS011;28634;45.454;11.106;2022-09-12T00:28:12;3.97;;;1.83;;
43008;SDS011;28634;45.454;11.106;2022-09-12T00:30:45;3.30;;;1.80;;
43008;SDS011;28634;45.454;11.106;2022-09-12T00:33:14;3.78;;;1.80;;
43008;SDS011;28634;45.454;11.106;2022-09-12T00:35:43;3.65;;;1.90;;
43008;SDS011;28634;45.454;11.106;2022-09-12T00:38:17;2.90;;;1.70;;
43008;SDS011;28634;45.454;11.106;2022-09-12T00:40:45;4.32;;;1.73;;
43008;SDS011;28634;45.454;11.106;2022-09-12T00:46:00;3.47;;;1.80;;
43008;SDS011;28634;45.454;11.106;2022-09-12T00:49:26;2.60;;;1.60;;
43008;SDS011;28634;45.454;11.106;2022-09-12T00:52:13;3.45;;;1.75;;
43008;SDS011;28634;45.454;11.106;2022-09-12T00:54:49;3.03;;;1.67;;
43008;SDS011;28634;45.454;11.106;2022-09-12T00:57:37;2.88;;;1.60;;
43008;SDS011;28634;45.454;11.106;2022-09-12T01:00:12;4.25;;;1.60;;
43008;SDS011;28634;45.454;11.106;2022-09-12T01:02:42;3.50;;;1.58;;
43008;SDS011;28634;45.454;11.106;2022-09-12T01:05:11;3.38;;;1.70;;
43008;SDS011;28634;45.454;11.106;2022-09-12T01:07:39;3.38;;;1.60;;
43008;SDS011;28634;45.454;11.106;2022-09-12T01:10:07;2.85;;;1.63;;
43008;SDS011;28634;45.454;11.106;2022-09-12T01:12:36;4.65;;;1.80;;
43008;SDS011;28634;45.454;11.106;2022-09-12T01:15:06;2.63;;;1.88;;
43008;SDS011;28634;45.454;11.106;2022-09-12T01:17:40;2.28;;;1.50;;
43008;SDS011;28634;45.454;11.106;2022-09-12T01:36:35;3.45;;;1.60;;
43008;SDS011;28634;45.454;11.106;2022-09-12T01:39:05;3.95;;;1.63;;
43008;SDS011;28634;45.454;11.106;2022-09-12T01:47:36;2.75;;;1.60;;
43008;SDS011;28634;45.454;11.106;2022-09-12T01:50:17;3.35;;;1.65;;
43008;SDS011;28634;45.454;11.106;2022-09-12T01:55:27;4.57;;;1.83;;
43008;SDS011;28634;45.454;11.106;2022-09-12T02:03:07;4.93;;;1.48;;
43008;SDS011;28634;45.454;11.106;2022-09-12T02:05:51;2.40;;;1.58;;
43008;SDS011;28634;45.454;11.106;2022-09-12T02:08:27;4.38;;;1.50;;
43008;SDS011;28634;45.454;11.106;2022-09-12T02:10:59;5.63;;;1.70;;
43008;SDS011;28634;45.454;11.106;2022-09-12T02:16:10;3.83;;;1.88;;
43008;SDS011;28634;45.454;11.106;2022-09-12T02:18:52;2.78;;;1.70;;
43008;SDS011;28634;45.454;11.106;2022-09-12T02:21:23;2.65;;;1.80;;
43008;SDS011;28634;45.454;11.106;2022-09-12T02:23:54;4.05;;;2.00;;
43008;SDS011;28634;45.454;11.106;2022-09-12T02:26:43;2.63;;;1.60;;
43008;SDS011;28634;45.454;11.106;2022-09-12T02:29:41;5.03;;;2.05;;
43008;SDS011;28634;45.454;11.106;2022-09-12T02:35:07;4.45;;;2.13;;
43008;SDS011;28634;45.454;11.106;2022-09-12T02:40:16;3.47;;;1.70;;
43008;SDS011;28634;45.454;11.106;2022-09-12T02:42:44;3.83;;;1.40;;
43008;SDS011;28634;45.454;11.106;2022-09-12T02:45:11;4.05;;;1.83;;
43008;SDS011;28634;45.454;11.106;2022-09-12T02:47:43;2.42;;;1.70;;
43008;SDS011;28634;45.454;11.106;2022-09-12T02:50:31;3.55;;;1.70;;
43008;SDS011;28634;45.454;11.106;2022-09-12T02:52:59;3.60;;;1.65;;
43008;SDS011;28634;45.454;11.106;2022-09-12T02:55:33;4.25;;;1.90;;
43008;SDS011;28634;45.454;11.106;2022-09-12T02:58:02;2.50;;;1.60;;
43008;SDS011;28634;45.454;11.106;2022-09-12T03:00:45;4.13;;;1.90;;
43008;SDS011;28634;45.454;11.106;2022-09-12T03:16:09;5.55;;;1.95;;
43008;SDS011;28634;45.454;11.106;2022-09-12T03:19:01;5.60;;;1.90;;
43008;SDS011;28634;45.454;11.106;2022-09-12T03:22:01;3.28;;;1.88;;
43008;SDS011;28634;45.454;11.106;2022-09-12T03:27:42;3.15;;;1.63;;
43008;SDS011;28634;45.454;11.106;2022-09-12T03:30:17;4.65;;;1.98;;
43008;SDS011;28634;45.454;11.106;2022-09-12T03:32:46;9.05;;;2.00;;
43008;SDS011;28634;45.454;11.106;2022-09-12T03:35:15;3.03;;;1.70;;
43008;SDS011;28634;45.454;11.106;2022-09-12T03:37:48;2.95;;;1.90;;
43008;SDS011;28634;45.454;11.106;2022-09-12T03:40:16;3.55;;;2.00;;
43008;SDS011;28634;45.454;11.106;2022-09-12T03:42:44;3.67;;;2.13;;
43008;SDS011;28634;45.454;11.106;2022-09-12T03:45:11;6.32;;;2.10;;
43008;SDS011;28634;45.454;11.106;2022-09-12T03:47:41;3.75;;;2.10;;
43008;SDS011;28634;45.454;11.106;2022-09-12T03:50:08;3.20;;;2.13;;
43008;SDS011;28634;45.454;11.106;2022-09-12T03:52:35;2.90;;;2.05;;
43008;SDS011;28634;45.454;11.106;2022-09-12T03:55:02;3.92;;;1.80;;
43008;SDS011;28634;45.454;11.106;2022-09-12T03:57:30;3.63;;;2.05;;
43008;SDS011;28634;45.454;11.106;2022-09-12T03:59:57;5.28;;;2.10;;
43008;SDS011;28634;45.454;11.106;2022-09-12T04:02:24;3.05;;;1.92;;
43008;SDS011;28634;45.454;11.106;2022-09-12T04:04:51;3.03;;;1.73;;
43008;SDS011;28634;45.454;11.106;2022-09-12T04:07:18;4.13;;;1.80;;
43008;SDS011;28634;45.454;11.106;2022-09-12T04:09:46;2.97;;;1.67;;
43008;SDS011;28634;45.454;11.106;2022-09-12T04:12:13;4.88;;;2.10;;
43008;SDS011;28634;45.454;11.106;2022-09-12T04:14:40;4.25;;;2.08;;
43008;SDS011;28634;45.454;11.106;2022-09-12T04:17:07;2.85;;;1.98;;
43008;SDS011;28634;45.454;11.106;2022-09-12T04:19:34;3.45;;;1.77;;
43008;SDS011;28634;45.454;11.106;2022-09-12T04:22:01;3.60;;;1.70;;
43008;SDS011;28634;45.454;11.106;2022-09-12T04:24:29;4.35;;;2.00;;
43008;SDS011;28634;45.454;11.106;2022-09-12T04:26:59;3.83;;;1.67;;
43008;SDS011;28634;45.454;11.106;2022-09-12T04:29:31;3.67;;;1.90;;
43008;SDS011;28634;45.454;11.106;2022-09-12T04:31:58;2.65;;;1.80;;
43008;SDS011;28634;45.454;11.106;2022-09-12T04:34:25;4.90;;;2.90;;
43008;SDS011;28634;45.454;11.106;2022-09-12T04:36:55;3.03;;;1.83;;
43008;SDS011;28634;45.454;11.106;2022-09-12T04:39:23;9.75;;;2.83;;
43008;SDS011;28634;45.454;11.106;2022-09-12T04:41:50;8.02;;;2.33;;
43008;SDS011;28634;45.454;11.106;2022-09-12T04:44:17;4.82;;;2.00;;
43008;SDS011;28634;45.454;11.106;2022-09-12T04:46:45;2.45;;;1.77;;
43008;SDS011;28634;45.454;11.106;2022-09-12T04:49:12;3.40;;;1.70;;
43008;SDS011;28634;45.454;11.106;2022-09-12T04:51:41;6.10;;;2.22;;
43008;SDS011;28634;45.454;11.106;2022-09-12T04:54:15;3.30;;;1.98;;
43008;SDS011;28634;45.454;11.106;2022-09-12T04:56:45;5.60;;;1.98;;
43008;SDS011;28634;45.454;11.106;2022-09-12T04:59:14;3.35;;;1.90;;
43008;SDS011;28634;45.454;11.106;2022-09-12T05:01:42;4.13;;;1.60;;
43008;SDS011;28634;45.454;11.106;2022-09-12T05:04:10;4.70;;;2.33;;
43008;SDS011;28634;45.454;11.106;2022-09-12T05:06:38;5.18;;;1.60;;
43008;SDS011;28634;45.454;11.106;2022-09-12T05:09:07;3.45;;;1.48;;
43008;SDS011;28634;45.454;11.106;2022-09-12T05:11:37;6.88;;;1.70;;
43008;SDS011;28634;45.454;11.106;2022-09-12T05:14:26;5.10;;;1.80;;
43008;SDS011;28634;45.454;11.106;2022-09-12T05:16:53;4.07;;;2.03;;
43008;SDS011;28634;45.454;11.106;2022-09-12T05:19:25;2.83;;;1.70;;
43008;SDS011;28634;45.454;11.106;2022-09-12T05:21:53;6.95;;;1.85;;
43008;SDS011;28634;45.454;11.106;2022-09-12T05:24:20;7.03;;;2.00;;
43008;SDS011;28634;45.454;11.106;2022-09-12T05:26:47;4.70;;;2.00;;
43008;SDS011;28634;45.454;11.106;2022-09-12T05:29:14;5.80;;;1.88;;
43008;SDS011;28634;45.454;11.106;2022-09-12T05:31:41;5.43;;;1.90;;
43008;SDS011;28634;45.454;11.106;2022-09-12T05:34:08;5.68;;;1.98;;
43008;SDS011;28634;45.454;11.106;2022-09-12T05:36:35;4.15;;;1.98;;
43008;SDS011;28634;45.454;11.106;2022-09-12T05:39:03;4.00;;;1.83;;
43008;SDS011;28634;45.454;11.106;2022-09-12T05:41:31;8.82;;;2.10;;
43008;SDS011;28634;45.454;11.106;2022-09-12T05:44:00;4.70;;;1.70;;
43008;SDS011;28634;45.454;11.106;2022-09-12T05:46:30;6.57;;;2.30;;
43008;SDS011;28634;45.454;11.106;2022-09-12T05:49:02;4.07;;;2.00;;
43008;SDS011;28634;45.454;11.106;2022-09-12T05:51:32;9.23;;;2.30;;
43008;SDS011;28634;45.454;11.106;2022-09-12T05:54:01;4.70;;;2.10;;
43008;SDS011;28634;45.454;11.106;2022-09-12T05:56:31;6.93;;;2.60;;
43008;SDS011;28634;45.454;11.106;2022-09-12T05:59:01;10.65;;;2.33;;
43008;SDS011;28634;45.454;11.106;2022-09-12T06:01:33;4.88;;;1.90;;
43008;SDS011;28634;45.454;11.106;2022-09-12T06:04:02;4.25;;;2.15;;
43008;SDS011;28634;45.454;11.106;2022-09-12T06:06:31;5.20;;;2.10;;
43008;SDS011;28634;45.454;11.106;2022-09-12T06:09:01;5.53;;;2.30;;
43008;SDS011;28634;45.454;11.106;2022-09-12T06:11:30;3.28;;;1.95;;
43008;SDS011;28634;45.454;11.106;2022-09-12T06:13:59;5.32;;;2.50;;
43008;SDS011;28634;45.454;11.106;2022-09-12T06:16:28;4.80;;;1.80;;
43008;SDS011;28634;45.454;11.106;2022-09-12T06:18:57;4.85;;;1.90;;
43008;SDS011;28634;45.454;11.106;2022-09-12T06:21:26;5.53;;;2.50;;
43008;SDS011;28634;45.454;11.106;2022-09-12T06:23:53;4.55;;;1.98;;
43008;SDS011;28634;45.454;11.106;2022-09-12T06:26:21;7.93;;;2.63;;
43008;SDS011;28634;45.454;11.106;2022-09-12T06:28:51;7.25;;;2.40;;
43008;SDS011;28634;45.454;11.106;2022-09-12T06:31:20;5.05;;;2.22;;
43008;SDS011;28634;45.454;11.106;2022-09-12T06:33:53;2.83;;;1.80;;
43008;SDS011;28634;45.454;11.106;2022-09-12T06:38:56;3.65;;;1.70;;
43008;SDS011;28634;45.454;11.106;2022-09-12T06:41:28;6.40;;;2.42;;
43008;SDS011;28634;45.454;11.106;2022-09-12T06:43:56;5.82;;;2.55;;
43008;SDS011;28634;45.454;11.106;2022-09-12T06:46:25;4.97;;;1.98;;
43008;SDS011;28634;45.454;11.106;2022-09-12T06:48:54;2.85;;;1.65;;
43008;SDS011;28634;45.454;11.106;2022-09-12T06:51:22;3.70;;;1.98;;
43008;SDS011;28634;45.454;11.106;2022-09-12T06:53:49;3.60;;;1.75;;
43008;SDS011;28634;45.454;11.106;2022-09-12T06:56:18;3.35;;;1.92;;
43008;SDS011;28634;45.454;11.106;2022-09-12T06:58:47;3.92;;;2.55;;
43008;SDS011;28634;45.454;11.106;2022-09-12T07:01:16;4.70;;;2.42;;
43008;SDS011;28634;45.454;11.106;2022-09-12T07:03:55;4.95;;;2.78;;
43008;SDS011;28634;45.454;11.106;2022-09-12T07:06:44;10.23;;;3.28;;
43008;SDS011;28634;45.454;11.106;2022-09-12T07:09:12;7.60;;;2.35;;
43008;SDS011;28634;45.454;11.106;2022-09-12T07:11:46;4.85;;;2.28;;
43008;SDS011;28634;45.454;11.106;2022-09-12T07:14:13;4.45;;;2.55;;
43008;SDS011;28634;45.454;11.106;2022-09-12T07:16:41;5.18;;;2.95;;
43008;SDS011;28634;45.454;11.106;2022-09-12T07:19:08;6.65;;;2.90;;
43008;SDS011;28634;45.454;11.106;2022-09-12T07:21:36;4.90;;;2.70;;
43008;SDS011;28634;45.454;11.106;2022-09-12T07:24:06;4.03;;;2.22;;
43008;SDS011;28634;45.454;11.106;2022-09-12T07:26:34;4.35;;;2.40;;
43008;SDS011;28634;45.454;11.106;2022-09-12T07:29:02;5.78;;;2.30;;
43008;SDS011;28634;45.454;11.106;2022-09-12T07:31:50;5.22;;;2.50;;
43008;SDS011;28634;45.454;11.106;2022-09-12T07:34:17;3.58;;;1.77;;
43008;SDS011;28634;45.454;11.106;2022-09-12T07:36:44;6.38;;;2.58;;
43008;SDS011;28634;45.454;11.106;2022-09-12T07:39:11;2.72;;;1.80;;
43008;SDS011;28634;45.454;11.106;2022-09-12T07:41:38;3.50;;;2.33;;
43008;SDS011;28634;45.454;11.106;2022-09-12T07:44:05;5.03;;;2.40;;
43008;SDS011;28634;45.454;11.106;2022-09-12T07:46:32;3.67;;;2.47;;
43008;SDS011;28634;45.454;11.106;2022-09-12T07:49:00;15.40;;;3.42;;
43008;SDS011;28634;45.454;11.106;2022-09-12T07:51:28;16.52;;;3.78;;
43008;SDS011;28634;45.454;11.106;2022-09-12T07:53:56;8.00;;;2.80;;
43008;SDS011;28634;45.454;11.106;2022-09-12T07:56:24;4.45;;;2.28;;
43008;SDS011;28634;45.454;11.106;2022-09-12T07:58:57;6.40;;;2.78;;
43008;SDS011;28634;45.454;11.106;2022-09-12T08:01:25;5.60;;;2.50;;
43008;SDS011;28634;45.454;11.106;2022-09-12T08:03:53;6.47;;;3.00;;
43008;SDS011;28634;45.454;11.106;2022-09-12T08:06:22;6.07;;;3.05;;
43008;SDS011;28634;45.454;11.106;2022-09-12T08:08:51;6.03;;;3.53;;
43008;SDS011;28634;45.454;11.106;2022-09-12T08:11:21;8.23;;;2.88;;
43008;SDS011;28634;45.454;11.106;2022-09-12T08:13:49;5.82;;;3.67;;
43008;SDS011;28634;45.454;11.106;2022-09-12T08:16:22;7.22;;;3.47;;
43008;SDS011;28634;45.454;11.106;2022-09-12T08:18:51;5.80;;;3.80;;
43008;SDS011;28634;45.454;11.106;2022-09-12T08:21:19;4.55;;;3.22;;
43008;SDS011;28634;45.454;11.106;2022-09-12T08:23:52;4.65;;;3.20;;
43008;SDS011;28634;45.454;11.106;2022-09-12T08:26:21;5.18;;;3.72;;
43008;SDS011;28634;45.454;11.106;2022-09-12T08:28:48;4.90;;;3.38;;
43008;SDS011;28634;45.454;11.106;2022-09-12T08:31:16;5.35;;;2.80;;
43008;SDS011;28634;45.454;11.106;2022-09-12T08:33:45;6.22;;;2.60;;
43008;SDS011;28634;45.454;11.106;2022-09-12T08:36:16;5.32;;;2.33;;
43008;SDS011;28634;45.454;11.106;2022-09-12T08:38:46;3.88;;;2.15;;
43008;SDS011;28634;45.454;11.106;2022-09-12T08:49:59;2.83;;;0.93;;
43008;SDS011;28634;45.454;11.106;2022-09-12T08:54:59;2.33;;;1.10;;
43008;SDS011;28634;45.454;11.106;2022-09-12T08:57:27;4.28;;;1.10;;
43008;SDS011;28634;45.454;11.106;2022-09-12T08:59:54;4.05;;;1.20;;
43008;SDS011;28634;45.454;11.106;2022-09-12T09:11:22;2.45;;;1.00;;
43008;SDS011;28634;45.454;11.106;2022-09-12T09:16:41;2.67;;;1.30;;
43008;SDS011;28634;45.454;11.106;2022-09-12T09:19:15;3.75;;;1.65;;
43008;SDS011;28634;45.454;11.106;2022-09-12T09:22:10;3.13;;;1.50;;
43008;SDS011;28634;45.454;11.106;2022-09-12T09:24:43;2.92;;;1.25;;
43008;SDS011;28634;45.454;11.106;2022-09-12T09:30:11;2.85;;;1.30;;
43008;SDS011;28634;45.454;11.106;2022-09-12T09:32:41;3.40;;;1.30;;
43008;SDS011;28634;45.454;11.106;2022-09-12T09:35:21;3.30;;;1.20;;
43008;SDS011;28634;45.454;11.106;2022-09-12T09:41:12;2.05;;;1.10;;
43008;SDS011;28634;45.454;11.106;2022-09-12T09:43:45;2.72;;;1.30;;
43008;SDS011;28634;45.454;11.106;2022-09-12T09:46:12;3.17;;;1.00;;
43008;SDS011;28634;45.454;11.106;2022-09-12T09:48:41;2.42;;;1.30;;
43008;SDS011;28634;45.454;11.106;2022-09-12T09:51:11;2.30;;;1.20;;
43008;SDS011;28634;45.454;11.106;2022-09-12T09:53:51;4.75;;;1.73;;
43008;SDS011;28634;45.454;11.106;2022-09-12T09:56:33;4.53;;;1.95;;
43008;SDS011;28634;45.454;11.106;2022-09-12T09:59:08;4.18;;;1.27;;
43008;SDS011;28634;45.454;11.106;2022-09-12T10:01:45;3.17;;;1.58;;
43008;SDS011;28634;45.454;11.106;2022-09-12T10:04:21;3.45;;;1.50;;
43008;SDS011;28634;45.454;11.106;2022-09-12T10:07:00;6.70;;;1.52;;
43008;SDS011;28634;45.454;11.106;2022-09-12T10:09:32;5.38;;;1.40;;
43008;SDS011;28634;45.454;11.106;2022-09-12T10:12:18;2.53;;;1.38;;
43008;SDS011;28634;45.454;11.106;2022-09-12T10:14:57;1.88;;;1.10;;
43008;SDS011;28634;45.454;11.106;2022-09-12T10:17:29;5.13;;;1.40;;
43008;SDS011;28634;45.454;11.106;2022-09-12T10:20:00;2.22;;;1.40;;
43008;SDS011;28634;45.454;11.106;2022-09-12T10:26:33;1.75;;;1.10;;
43008;SDS011;28634;45.454;11.106;2022-09-12T10:29:10;6.05;;;1.63;;
43008;SDS011;28634;45.454;11.106;2022-09-12T10:31:46;1.75;;;1.10;;
43008;SDS011;28634;45.454;11.106;2022-09-12T10:34:22;2.38;;;1.10;;
43008;SDS011;28634;45.454;11.106;2022-09-12T10:36:54;2.50;;;1.10;;
43008;SDS011;28634;45.454;11.106;2022-09-12T10:39:30;2.30;;;1.20;;
43008;SDS011;28634;45.454;11.106;2022-09-12T10:41:59;5.07;;;1.30;;
43008;SDS011;28634;45.454;11.106;2022-09-12T10:44:30;3.08;;;1.58;;
43008;SDS011;28634;45.454;11.106;2022-09-12T10:50:17;3.05;;;1.67;;
43008;SDS011;28634;45.454;11.106;2022-09-12T10:52:53;2.33;;;1.20;;
43008;SDS011;28634;45.454;11.106;2022-09-12T10:55:40;2.80;;;1.48;;
43008;SDS011;28634;45.454;11.106;2022-09-12T11:10:29;6.22;;;1.65;;
43008;SDS011;28634;45.454;11.106;2022-09-12T11:13:28;4.07;;;1.50;;
43008;SDS011;28634;45.454;11.106;2022-09-12T11:16:18;5.30;;;1.60;;
43008;SDS011;28634;45.454;11.106;2022-09-12T11:27:46;4.03;;;2.03;;
43008;SDS011;28634;45.454;11.106;2022-09-12T11:30:22;5.95;;;1.70;;
43008;SDS011;28634;45.454;11.106;2022-09-12T11:35:52;3.47;;;2.08;;
43008;SDS011;28634;45.454;11.106;2022-09-12T11:41:25;4.57;;;1.92;;
43008;SDS011;28634;45.454;11.106;2022-09-12T11:44:00;3.15;;;1.70;;
43008;SDS011;28634;45.454;11.106;2022-09-12T11:46:51;7.15;;;1.90;;
43008;SDS011;28634;45.454;11.106;2022-09-12T11:49:30;3.70;;;1.55;;
43008;SDS011;28634;45.454;11.106;2022-09-12T11:54:58;4.03;;;2.40;;
43008;SDS011;28634;45.454;11.106;2022-09-12T12:05:27;3.97;;;1.95;;
43008;SDS011;28634;45.454;11.106;2022-09-12T12:08:05;3.03;;;1.50;;
43008;SDS011;28634;45.454;11.106;2022-09-12T12:10:40;3.25;;;1.60;;
43008;SDS011;28634;45.454;11.106;2022-09-12T12:13:15;4.50;;;1.85;;
43008;SDS011;28634;45.454;11.106;2022-09-12T12:16:00;3.85;;;2.10;;
43008;SDS011;28634;45.454;11.106;2022-09-12T12:18:36;4.70;;;2.30;;
43008;SDS011;28634;45.454;11.106;2022-09-12T12:47:58;3.75;;;2.33;;
43008;SDS011;28634;45.454;11.106;2022-09-12T12:50:36;3.33;;;1.98;;
43008;SDS011;28634;45.454;11.106;2022-09-12T12:53:04;3.72;;;2.13;;
43008;SDS011;28634;45.454;11.106;2022-09-12T13:03:43;3.80;;;2.13;;
43008;SDS011;28634;45.454;11.106;2022-09-12T13:06:31;3.83;;;2.15;;
43008;SDS011;28634;45.454;11.106;2022-09-12T13:09:07;4.15;;;1.90;;
43008;SDS011;28634;45.454;11.106;2022-09-12T13:12:42;3.63;;;2.20;;
43008;SDS011;28634;45.454;11.106;2022-09-12T13:17:17;5.60;;;2.30;;
43008;SDS011;28634;45.454;11.106;2022-09-12T13:19:46;4.55;;;2.72;;
43008;SDS011;28634;45.454;11.106;2022-09-12T13:22:39;5.40;;;2.15;;
43008;SDS011;28634;45.454;11.106;2022-09-12T13:27:58;3.55;;;2.00;;
43008;SDS011;28634;45.454;11.106;2022-09-12T13:30:30;5.50;;;2.60;;
43008;SDS011;28634;45.454;11.106;2022-09-12T13:39:08;5.07;;;2.35;;
43008;SDS011;28634;45.454;11.106;2022-09-12T13:41:48;4.47;;;2.10;;
43008;SDS011;28634;45.454;11.106;2022-09-12T13:45:01;2.90;;;1.95;;
43008;SDS011;28634;45.454;11.106;2022-09-12T13:47:55;3.60;;;1.98;;
43008;SDS011;28634;45.454;11.106;2022-09-12T13:50:29;5.47;;;2.63;;
43008;SDS011;28634;45.454;11.106;2022-09-12T13:53:17;3.47;;;1.67;;
43008;SDS011;28634;45.454;11.106;2022-09-12T13:55:49;3.13;;;1.75;;
43008;SDS011;28634;45.454;11.106;2022-09-12T14:03:39;3.95;;;1.75;;
43008;SDS011;28634;45.454;11.106;2022-09-12T14:06:26;4.35;;;2.15;;
43008;SDS011;28634;45.454;11.106;2022-09-12T14:08:53;5.88;;;1.95;;
43008;SDS011;28634;45.454;11.106;2022-09-12T14:11:27;4.70;;;1.73;;
43008;SDS011;28634;45.454;11.106;2022-09-12T14:13:56;4.70;;;2.20;;
43008;SDS011;28634;45.454;11.106;2022-09-12T14:16:23;3.22;;;1.80;;
43008;SDS011;28634;45.454;11.106;2022-09-12T14:18:54;3.80;;;2.00;;
43008;SDS011;28634;45.454;11.106;2022-09-12T14:21:32;5.32;;;1.92;;
43008;SDS011;28634;45.454;11.106;2022-09-12T14:24:05;3.13;;;1.90;;
43008;SDS011;28634;45.454;11.106;2022-09-12T14:26:34;3.47;;;1.80;;
43008;SDS011;28634;45.454;11.106;2022-09-12T14:29:04;4.50;;;1.90;;
43008;SDS011;28634;45.454;11.106;2022-09-12T14:31:36;3.05;;;1.90;;
43008;SDS011;28634;45.454;11.106;2022-09-12T14:36:42;4.57;;;2.20;;
43008;SDS011;28634;45.454;11.106;2022-09-12T14:39:19;5.68;;;1.92;;
43008;SDS011;28634;45.454;11.106;2022-09-12T14:42:13;6.40;;;2.05;;
43008;SDS011;28634;45.454;11.106;2022-09-12T14:44:49;4.05;;;1.80;;
43008;SDS011;28634;45.454;11.106;2022-09-12T14:47:24;3.38;;;1.75;;
43008;SDS011;28634;45.454;11.106;2022-09-12T14:49:53;3.95;;;1.98;;
43008;SDS011;28634;45.454;11.106;2022-09-12T14:54:59;14.93;;;2.38;;
43008;SDS011;28634;45.454;11.106;2022-09-12T14:57:33;14.13;;;2.45;;
43008;SDS011;28634;45.454;11.106;2022-09-12T15:02:51;3.55;;;1.60;;
43008;SDS011;28634;45.454;11.106;2022-09-12T15:05:23;3.40;;;1.90;;
43008;SDS011;28634;45.454;11.106;2022-09-12T15:08:00;5.53;;;1.95;;
43008;SDS011;28634;45.454;11.106;2022-09-12T15:10:29;5.55;;;2.10;;
43008;SDS011;28634;45.454;11.106;2022-09-12T15:15:30;5.57;;;2.90;;
43008;SDS011;28634;45.454;11.106;2022-09-12T15:17:58;5.85;;;2.20;;
43008;SDS011;28634;45.454;11.106;2022-09-12T15:20:31;6.60;;;2.13;;
43008;SDS011;28634;45.454;11.106;2022-09-12T15:23:02;4.07;;;2.13;;
43008;SDS011;28634;45.454;11.106;2022-09-12T15:25:31;4.85;;;1.77;;
43008;SDS011;28634;45.454;11.106;2022-09-12T15:27:58;7.18;;;2.17;;
43008;SDS011;28634;45.454;11.106;2022-09-12T15:30:27;6.88;;;1.88;;
43008;SDS011;28634;45.454;11.106;2022-09-12T15:32:54;30.13;;;3.22;;
43008;SDS011;28634;45.454;11.106;2022-09-12T15:35:21;5.28;;;1.85;;
43008;SDS011;28634;45.454;11.106;2022-09-12T15:37:51;7.18;;;2.00;;
43008;SDS011;28634;45.454;11.106;2022-09-12T15:40:18;2.67;;;1.60;;
43008;SDS011;28634;45.454;11.106;2022-09-12T15:42:45;3.95;;;2.10;;
43008;SDS011;28634;45.454;11.106;2022-09-12T15:45:22;3.67;;;1.88;;
43008;SDS011;28634;45.454;11.106;2022-09-12T15:47:53;5.43;;;1.88;;
43008;SDS011;28634;45.454;11.106;2022-09-12T15:50:25;9.55;;;2.00;;
43008;SDS011;28634;45.454;11.106;2022-09-12T15:52:54;7.32;;;2.03;;
43008;SDS011;28634;45.454;11.106;2022-09-12T15:55:26;4.47;;;1.80;;
43008;SDS011;28634;45.454;11.106;2022-09-12T15:57:55;2.92;;;1.60;;
43008;SDS011;28634;45.454;11.106;2022-09-12T16:00:23;2.38;;;1.50;;
43008;SDS011;28634;45.454;11.106;2022-09-12T16:02:52;4.22;;;1.60;;
43008;SDS011;28634;45.454;11.106;2022-09-12T16:05:21;3.90;;;2.05;;
43008;SDS011;28634;45.454;11.106;2022-09-12T16:07:51;4.32;;;1.90;;
43008;SDS011;28634;45.454;11.106;2022-09-12T16:10:20;4.95;;;1.65;;
43008;SDS011;28634;45.454;11.106;2022-09-12T16:12:52;3.92;;;2.00;;
43008;SDS011;28634;45.454;11.106;2022-09-12T16:15:21;3.03;;;1.60;;
43008;SDS011;28634;45.454;11.106;2022-09-12T16:17:49;3.17;;;1.70;;
43008;SDS011;28634;45.454;11.106;2022-09-12T16:20:17;4.65;;;1.83;;
43008;SDS011;28634;45.454;11.106;2022-09-12T16:22:45;4.78;;;2.00;;
43008;SDS011;28634;45.454;11.106;2022-09-12T16:25:12;4.13;;;1.80;;
43008;SDS011;28634;45.454;11.106;2022-09-12T16:27:39;7.43;;;2.17;;
43008;SDS011;28634;45.454;11.106;2022-09-12T16:30:07;2.45;;;1.58;;
43008;SDS011;28634;45.454;11.106;2022-09-12T16:32:35;4.97;;;1.90;;
43008;SDS011;28634;45.454;11.106;2022-09-12T16:35:02;4.88;;;1.70;;
43008;SDS011;28634;45.454;11.106;2022-09-12T16:37:30;5.63;;;1.88;;
43008;SDS011;28634;45.454;11.106;2022-09-12T16:40:00;5.40;;;2.10;;
43008;SDS011;28634;45.454;11.106;2022-09-12T16:42:30;5.28;;;1.70;;
43008;SDS011;28634;45.454;11.106;2022-09-12T16:44:57;4.00;;;1.80;;
43008;SDS011;28634;45.454;11.106;2022-09-12T16:47:24;6.38;;;2.08;;
43008;SDS011;28634;45.454;11.106;2022-09-12T16:49:51;5.00;;;1.90;;
43008;SDS011;28634;45.454;11.106;2022-09-12T16:52:18;5.93;;;2.40;;
43008;SDS011;28634;45.454;11.106;2022-09-12T16:54:45;4.60;;;2.00;;
43008;SDS011;28634;45.454;11.106;2022-09-12T16:57:13;4.32;;;1.90;;
43008;SDS011;28634;45.454;11.106;2022-09-12T16:59:40;3.85;;;2.00;;
43008;SDS011;28634;45.454;11.106;2022-09-12T17:02:10;6.03;;;1.88;;
43008;SDS011;28634;45.454;11.106;2022-09-12T17:04:39;3.90;;;2.00;;
43008;SDS011;28634;45.454;11.106;2022-09-12T17:07:06;5.05;;;2.00;;
43008;SDS011;28634;45.454;11.106;2022-09-12T17:09:34;4.88;;;1.95;;
43008;SDS011;28634;45.454;11.106;2022-09-12T17:12:01;4.60;;;1.98;;
43008;SDS011;28634;45.454;11.106;2022-09-12T17:14:28;4.05;;;2.10;;
43008;SDS011;28634;45.454;11.106;2022-09-12T17:16:55;4.53;;;2.22;;
43008;SDS011;28634;45.454;11.106;2022-09-12T17:19:24;6.30;;;2.33;;
43008;SDS011;28634;45.454;11.106;2022-09-12T17:21:55;3.72;;;2.05;;
43008;SDS011;28634;45.454;11.106;2022-09-12T17:24:23;7.70;;;2.30;;
43008;SDS011;28634;45.454;11.106;2022-09-12T17:26:50;5.80;;;1.83;;
43008;SDS011;28634;45.454;11.106;2022-09-12T17:29:20;3.78;;;1.92;;
43008;SDS011;28634;45.454;11.106;2022-09-12T17:31:48;6.22;;;2.15;;
43008;SDS011;28634;45.454;11.106;2022-09-12T17:34:15;5.75;;;2.33;;
43008;SDS011;28634;45.454;11.106;2022-09-12T17:36:44;5.90;;;2.10;;
43008;SDS011;28634;45.454;11.106;2022-09-12T17:39:13;7.35;;;2.10;;
43008;SDS011;28634;45.454;11.106;2022-09-12T17:41:41;4.90;;;2.30;;
43008;SDS011;28634;45.454;11.106;2022-09-12T17:44:17;3.03;;;1.90;;
43008;SDS011;28634;45.454;11.106;2022-09-12T17:46:45;5.80;;;2.40;;
43008;SDS011;28634;45.454;11.106;2022-09-12T17:49:13;6.43;;;2.35;;
43008;SDS011;28634;45.454;11.106;2022-09-12T17:51:44;6.43;;;2.30;;
43008;SDS011;28634;45.454;11.106;2022-09-12T17:54:12;5.65;;;2.58;;
43008;SDS011;28634;45.454;11.106;2022-09-12T17:56:46;5.18;;;2.33;;
43008;SDS011;28634;45.454;11.106;2022-09-12T17:59:20;6.10;;;2.45;;
43008;SDS011;28634;45.454;11.106;2022-09-12T18:01:50;3.45;;;2.08;;
43008;SDS011;28634;45.454;11.106;2022-09-12T18:04:36;7.53;;;2.88;;
43008;SDS011;28634;45.454;11.106;2022-09-12T18:07:03;4.68;;;2.17;;
43008;SDS011;28634;45.454;11.106;2022-09-12T18:09:33;5.78;;;2.20;;
43008;SDS011;28634;45.454;11.106;2022-09-12T18:12:13;5.72;;;2.20;;
43008;SDS011;28634;45.454;11.106;2022-09-12T18:14:41;3.80;;;2.15;;
43008;SDS011;28634;45.454;11.106;2022-09-12T18:17:08;3.85;;;2.67;;